<?xml version="1.0" encoding="UTF-8" standalone="no" ?>
<gpx xmlns="http://www.topografix.com/GPX/1/1" xmlns:xsi="http://www.w3.org/2001/XMLSchema-instance" xsi:schemaLocation="http://www.topografix.com/GPX/1/1 http://www.topografix.com/GPX/1/1/gpx.xsd" version="1.1" creator="VisuGPX - https://www.visugpx.com">
  <metadata>
    <name>Parcours VTT 20 Km Rando VTT Autour du Vin 2018</name>
    <desc><![CDATA[Un parcours familial pour tous niveaux....]]></desc>
  </metadata>
  <trk>
    <name><![CDATA[8167431-18km2018]]></name>
    <trkseg>
      <trkpt lat="44.42977" lon="2.41243">
        <ele>331</ele>
        <time>2018-04-29T13:20:08Z</time>
      </trkpt>
      <trkpt lat="44.42976" lon="2.41189">
        <ele>331</ele>
        <time>2018-04-29T13:21:08Z</time>
      </trkpt>
      <trkpt lat="44.43066" lon="2.41165">
        <ele>333</ele>
        <time>2018-04-29T13:22:08Z</time>
      </trkpt>
      <trkpt lat="44.43148" lon="2.41184">
        <ele>332</ele>
        <time>2018-04-29T13:23:08Z</time>
      </trkpt>
      <trkpt lat="44.43233" lon="2.41229">
        <ele>332</ele>
        <time>2018-04-29T13:24:08Z</time>
      </trkpt>
      <trkpt lat="44.43337" lon="2.41305">
        <ele>333</ele>
        <time>2018-04-29T13:25:08Z</time>
      </trkpt>
      <trkpt lat="44.4343" lon="2.41382">
        <ele>331</ele>
        <time>2018-04-29T13:26:08Z</time>
      </trkpt>
      <trkpt lat="44.43555" lon="2.41498">
        <ele>332</ele>
        <time>2018-04-29T13:27:08Z</time>
      </trkpt>
      <trkpt lat="44.43596" lon="2.41528">
        <ele>332</ele>
        <time>2018-04-29T13:28:08Z</time>
      </trkpt>
      <trkpt lat="44.43651" lon="2.41555">
        <ele>333</ele>
        <time>2018-04-29T13:29:08Z</time>
      </trkpt>
      <trkpt lat="44.43759" lon="2.41539">
        <ele>341</ele>
        <time>2018-04-29T13:30:08Z</time>
      </trkpt>
      <trkpt lat="44.43819" lon="2.4154">
        <ele>346</ele>
        <time>2018-04-29T13:31:08Z</time>
      </trkpt>
      <trkpt lat="44.43896" lon="2.41619">
        <ele>332</ele>
        <time>2018-04-29T13:32:08Z</time>
      </trkpt>
      <trkpt lat="44.4394" lon="2.41679">
        <ele>326</ele>
        <time>2018-04-29T13:33:08Z</time>
      </trkpt>
      <trkpt lat="44.4417" lon="2.41692">
        <ele>324</ele>
        <time>2018-04-29T13:34:08Z</time>
      </trkpt>
      <trkpt lat="44.4427" lon="2.41694">
        <ele>324</ele>
        <time>2018-04-29T13:35:08Z</time>
      </trkpt>
      <trkpt lat="44.44342" lon="2.41694">
        <ele>325</ele>
        <time>2018-04-29T13:36:08Z</time>
      </trkpt>
      <trkpt lat="44.44402" lon="2.4169">
        <ele>325</ele>
        <time>2018-04-29T13:37:08Z</time>
      </trkpt>
      <trkpt lat="44.44457" lon="2.41693">
        <ele>329</ele>
        <time>2018-04-29T13:38:08Z</time>
      </trkpt>
      <trkpt lat="44.44501" lon="2.41754">
        <ele>321</ele>
        <time>2018-04-29T13:39:08Z</time>
      </trkpt>
      <trkpt lat="44.44547" lon="2.4179">
        <ele>322</ele>
        <time>2018-04-29T13:40:08Z</time>
      </trkpt>
      <trkpt lat="44.44601" lon="2.41795">
        <ele>324</ele>
        <time>2018-04-29T13:41:08Z</time>
      </trkpt>
      <trkpt lat="44.44632" lon="2.41785">
        <ele>326</ele>
        <time>2018-04-29T13:42:08Z</time>
      </trkpt>
      <trkpt lat="44.44713" lon="2.41876">
        <ele>322</ele>
        <time>2018-04-29T13:43:08Z</time>
      </trkpt>
      <trkpt lat="44.44791" lon="2.41949">
        <ele>314</ele>
        <time>2018-04-29T13:44:08Z</time>
      </trkpt>
      <trkpt lat="44.44874" lon="2.41878">
        <ele>317</ele>
        <time>2018-04-29T13:45:08Z</time>
      </trkpt>
      <trkpt lat="44.45051" lon="2.41914">
        <ele>311</ele>
        <time>2018-04-29T13:46:08Z</time>
      </trkpt>
      <trkpt lat="44.45143" lon="2.41894">
        <ele>315</ele>
        <time>2018-04-29T13:47:08Z</time>
      </trkpt>
      <trkpt lat="44.45247" lon="2.4194">
        <ele>312</ele>
        <time>2018-04-29T13:48:08Z</time>
      </trkpt>
      <trkpt lat="44.45382" lon="2.41959">
        <ele>311</ele>
        <time>2018-04-29T13:49:08Z</time>
      </trkpt>
      <trkpt lat="44.45498" lon="2.42017">
        <ele>309</ele>
        <time>2018-04-29T13:50:08Z</time>
      </trkpt>
      <trkpt lat="44.45642" lon="2.41982">
        <ele>310</ele>
        <time>2018-04-29T13:51:08Z</time>
      </trkpt>
      <trkpt lat="44.45685" lon="2.41997">
        <ele>308</ele>
        <time>2018-04-29T13:52:08Z</time>
      </trkpt>
      <trkpt lat="44.45765" lon="2.41933">
        <ele>313</ele>
        <time>2018-04-29T13:53:08Z</time>
      </trkpt>
      <trkpt lat="44.45682" lon="2.41764">
        <ele>323</ele>
        <time>2018-04-29T13:54:08Z</time>
      </trkpt>
      <trkpt lat="44.45657" lon="2.4153">
        <ele>334</ele>
        <time>2018-04-29T13:55:08Z</time>
      </trkpt>
      <trkpt lat="44.45587" lon="2.41444">
        <ele>345</ele>
        <time>2018-04-29T13:56:08Z</time>
      </trkpt>
      <trkpt lat="44.45711" lon="2.41311">
        <ele>345</ele>
        <time>2018-04-29T13:57:08Z</time>
      </trkpt>
      <trkpt lat="44.45852" lon="2.41261">
        <ele>349</ele>
        <time>2018-04-29T13:58:08Z</time>
      </trkpt>
      <trkpt lat="44.45967" lon="2.41261">
        <ele>353</ele>
        <time>2018-04-29T13:59:08Z</time>
      </trkpt>
      <trkpt lat="44.46074" lon="2.41195">
        <ele>352</ele>
        <time>2018-04-29T14:00:08Z</time>
      </trkpt>
      <trkpt lat="44.46307" lon="2.40957">
        <ele>353</ele>
        <time>2018-04-29T14:01:08Z</time>
      </trkpt>
      <trkpt lat="44.46465" lon="2.40843">
        <ele>352</ele>
        <time>2018-04-29T14:02:08Z</time>
      </trkpt>
      <trkpt lat="44.46601" lon="2.40764">
        <ele>347</ele>
        <time>2018-04-29T14:03:08Z</time>
      </trkpt>
      <trkpt lat="44.46728" lon="2.40714">
        <ele>341</ele>
        <time>2018-04-29T14:04:08Z</time>
      </trkpt>
      <trkpt lat="44.46769" lon="2.40738">
        <ele>339</ele>
        <time>2018-04-29T14:05:08Z</time>
      </trkpt>
      <trkpt lat="44.46763" lon="2.40867">
        <ele>334</ele>
        <time>2018-04-29T14:06:08Z</time>
      </trkpt>
      <trkpt lat="44.4669" lon="2.41092">
        <ele>328</ele>
        <time>2018-04-29T14:07:08Z</time>
      </trkpt>
      <trkpt lat="44.46598" lon="2.41287">
        <ele>321</ele>
        <time>2018-04-29T14:08:08Z</time>
      </trkpt>
      <trkpt lat="44.46443" lon="2.41294">
        <ele>321</ele>
        <time>2018-04-29T14:09:08Z</time>
      </trkpt>
      <trkpt lat="44.46386" lon="2.41412">
        <ele>320</ele>
        <time>2018-04-29T14:10:08Z</time>
      </trkpt>
      <trkpt lat="44.46347" lon="2.41686">
        <ele>312</ele>
        <time>2018-04-29T14:11:08Z</time>
      </trkpt>
      <trkpt lat="44.46144" lon="2.41562">
        <ele>323</ele>
        <time>2018-04-29T14:12:08Z</time>
      </trkpt>
      <trkpt lat="44.46054" lon="2.41585">
        <ele>323</ele>
        <time>2018-04-29T14:13:08Z</time>
      </trkpt>
      <trkpt lat="44.45984" lon="2.41684">
        <ele>319</ele>
        <time>2018-04-29T14:14:08Z</time>
      </trkpt>
      <trkpt lat="44.45912" lon="2.41742">
        <ele>319</ele>
        <time>2018-04-29T14:15:08Z</time>
      </trkpt>
      <trkpt lat="44.45837" lon="2.41877">
        <ele>316</ele>
        <time>2018-04-29T14:16:08Z</time>
      </trkpt>
      <trkpt lat="44.45783" lon="2.41916">
        <ele>314</ele>
        <time>2018-04-29T14:17:08Z</time>
      </trkpt>
      <trkpt lat="44.45846" lon="2.41959">
        <ele>310</ele>
        <time>2018-04-29T14:18:08Z</time>
      </trkpt>
      <trkpt lat="44.45942" lon="2.41959">
        <ele>307</ele>
        <time>2018-04-29T14:19:08Z</time>
      </trkpt>
      <trkpt lat="44.46017" lon="2.42122">
        <ele>303</ele>
        <time>2018-04-29T14:20:08Z</time>
      </trkpt>
      <trkpt lat="44.46048" lon="2.42154">
        <ele>302</ele>
        <time>2018-04-29T14:21:08Z</time>
      </trkpt>
      <trkpt lat="44.46099" lon="2.42257">
        <ele>301</ele>
        <time>2018-04-29T14:22:08Z</time>
      </trkpt>
      <trkpt lat="44.46046" lon="2.42347">
        <ele>302</ele>
        <time>2018-04-29T14:23:08Z</time>
      </trkpt>
      <trkpt lat="44.45919" lon="2.42465">
        <ele>304</ele>
        <time>2018-04-29T14:24:08Z</time>
      </trkpt>
      <trkpt lat="44.45749" lon="2.42618">
        <ele>315</ele>
        <time>2018-04-29T14:25:08Z</time>
      </trkpt>
      <trkpt lat="44.45644" lon="2.42856">
        <ele>336</ele>
        <time>2018-04-29T14:26:08Z</time>
      </trkpt>
      <trkpt lat="44.4572" lon="2.42997">
        <ele>350</ele>
        <time>2018-04-29T14:27:08Z</time>
      </trkpt>
      <trkpt lat="44.45757" lon="2.4303">
        <ele>351</ele>
        <time>2018-04-29T14:28:08Z</time>
      </trkpt>
      <trkpt lat="44.45774" lon="2.43085">
        <ele>359</ele>
        <time>2018-04-29T14:29:08Z</time>
      </trkpt>
      <trkpt lat="44.45844" lon="2.43111">
        <ele>358</ele>
        <time>2018-04-29T14:30:08Z</time>
      </trkpt>
      <trkpt lat="44.45746" lon="2.4312">
        <ele>369</ele>
        <time>2018-04-29T14:31:08Z</time>
      </trkpt>
      <trkpt lat="44.45863" lon="2.43199">
        <ele>376</ele>
        <time>2018-04-29T14:32:08Z</time>
      </trkpt>
      <trkpt lat="44.45965" lon="2.43272">
        <ele>379</ele>
        <time>2018-04-29T14:33:08Z</time>
      </trkpt>
      <trkpt lat="44.46043" lon="2.43392">
        <ele>398</ele>
        <time>2018-04-29T14:34:08Z</time>
      </trkpt>
      <trkpt lat="44.45938" lon="2.43418">
        <ele>423</ele>
        <time>2018-04-29T14:35:08Z</time>
      </trkpt>
      <trkpt lat="44.45854" lon="2.43388">
        <ele>427</ele>
        <time>2018-04-29T14:36:08Z</time>
      </trkpt>
      <trkpt lat="44.45748" lon="2.43384">
        <ele>441</ele>
        <time>2018-04-29T14:37:08Z</time>
      </trkpt>
      <trkpt lat="44.45592" lon="2.43325">
        <ele>444</ele>
        <time>2018-04-29T14:38:08Z</time>
      </trkpt>
      <trkpt lat="44.45379" lon="2.4339">
        <ele>434</ele>
        <time>2018-04-29T14:39:08Z</time>
      </trkpt>
      <trkpt lat="44.45262" lon="2.43506">
        <ele>430</ele>
        <time>2018-04-29T14:40:08Z</time>
      </trkpt>
      <trkpt lat="44.45177" lon="2.43697">
        <ele>460</ele>
        <time>2018-04-29T14:41:08Z</time>
      </trkpt>
      <trkpt lat="44.451" lon="2.43744">
        <ele>468</ele>
        <time>2018-04-29T14:42:08Z</time>
      </trkpt>
      <trkpt lat="44.44999" lon="2.43905">
        <ele>485</ele>
        <time>2018-04-29T14:43:08Z</time>
      </trkpt>
      <trkpt lat="44.44907" lon="2.43985">
        <ele>486</ele>
        <time>2018-04-29T14:44:08Z</time>
      </trkpt>
      <trkpt lat="44.44735" lon="2.44098">
        <ele>485</ele>
        <time>2018-04-29T14:45:08Z</time>
      </trkpt>
      <trkpt lat="44.4457" lon="2.44186">
        <ele>482</ele>
        <time>2018-04-29T14:46:08Z</time>
      </trkpt>
      <trkpt lat="44.44403" lon="2.44212">
        <ele>478</ele>
        <time>2018-04-29T14:47:08Z</time>
      </trkpt>
      <trkpt lat="44.4432" lon="2.44124">
        <ele>480</ele>
        <time>2018-04-29T14:48:08Z</time>
      </trkpt>
      <trkpt lat="44.44153" lon="2.44053">
        <ele>483</ele>
        <time>2018-04-29T14:49:08Z</time>
      </trkpt>
      <trkpt lat="44.44018" lon="2.43871">
        <ele>488</ele>
        <time>2018-04-29T14:50:08Z</time>
      </trkpt>
      <trkpt lat="44.43991" lon="2.43744">
        <ele>494</ele>
        <time>2018-04-29T14:51:08Z</time>
      </trkpt>
      <trkpt lat="44.43949" lon="2.43581">
        <ele>500</ele>
        <time>2018-04-29T14:52:08Z</time>
      </trkpt>
      <trkpt lat="44.439" lon="2.43469">
        <ele>502</ele>
        <time>2018-04-29T14:53:08Z</time>
      </trkpt>
      <trkpt lat="44.43683" lon="2.43572">
        <ele>513</ele>
        <time>2018-04-29T14:54:08Z</time>
      </trkpt>
      <trkpt lat="44.43629" lon="2.43555">
        <ele>516</ele>
        <time>2018-04-29T14:55:08Z</time>
      </trkpt>
      <trkpt lat="44.43562" lon="2.43493">
        <ele>522</ele>
        <time>2018-04-29T14:56:08Z</time>
      </trkpt>
      <trkpt lat="44.43531" lon="2.4339">
        <ele>523</ele>
        <time>2018-04-29T14:57:08Z</time>
      </trkpt>
      <trkpt lat="44.43473" lon="2.43238">
        <ele>516</ele>
        <time>2018-04-29T14:58:08Z</time>
      </trkpt>
      <trkpt lat="44.43369" lon="2.43141">
        <ele>524</ele>
        <time>2018-04-29T14:59:08Z</time>
      </trkpt>
      <trkpt lat="44.4324" lon="2.42985">
        <ele>519</ele>
        <time>2018-04-29T15:00:08Z</time>
      </trkpt>
      <trkpt lat="44.43185" lon="2.42862">
        <ele>508</ele>
        <time>2018-04-29T15:01:08Z</time>
      </trkpt>
      <trkpt lat="44.43085" lon="2.42703">
        <ele>505</ele>
        <time>2018-04-29T15:02:08Z</time>
      </trkpt>
      <trkpt lat="44.42993" lon="2.42731">
        <ele>499</ele>
        <time>2018-04-29T15:03:08Z</time>
      </trkpt>
      <trkpt lat="44.42934" lon="2.42901">
        <ele>495</ele>
        <time>2018-04-29T15:04:08Z</time>
      </trkpt>
      <trkpt lat="44.42829" lon="2.42997">
        <ele>460</ele>
        <time>2018-04-29T15:05:08Z</time>
      </trkpt>
      <trkpt lat="44.4279" lon="2.43107">
        <ele>456</ele>
        <time>2018-04-29T15:06:08Z</time>
      </trkpt>
      <trkpt lat="44.42751" lon="2.43143">
        <ele>447</ele>
        <time>2018-04-29T15:07:08Z</time>
      </trkpt>
      <trkpt lat="44.42711" lon="2.43075">
        <ele>426</ele>
        <time>2018-04-29T15:08:08Z</time>
      </trkpt>
      <trkpt lat="44.42719" lon="2.43165">
        <ele>440</ele>
        <time>2018-04-29T15:09:08Z</time>
      </trkpt>
      <trkpt lat="44.42701" lon="2.43234">
        <ele>441</ele>
        <time>2018-04-29T15:10:08Z</time>
      </trkpt>
      <trkpt lat="44.4271" lon="2.43345">
        <ele>455</ele>
        <time>2018-04-29T15:11:08Z</time>
      </trkpt>
      <trkpt lat="44.42674" lon="2.43505">
        <ele>464</ele>
        <time>2018-04-29T15:12:08Z</time>
      </trkpt>
      <trkpt lat="44.42612" lon="2.43519">
        <ele>483</ele>
        <time>2018-04-29T15:13:08Z</time>
      </trkpt>
      <trkpt lat="44.42531" lon="2.43427">
        <ele>489</ele>
        <time>2018-04-29T15:14:08Z</time>
      </trkpt>
      <trkpt lat="44.42426" lon="2.43073">
        <ele>490</ele>
        <time>2018-04-29T15:15:08Z</time>
      </trkpt>
      <trkpt lat="44.4237" lon="2.42834">
        <ele>490</ele>
        <time>2018-04-29T15:16:08Z</time>
      </trkpt>
      <trkpt lat="44.42309" lon="2.42714">
        <ele>470</ele>
        <time>2018-04-29T15:17:08Z</time>
      </trkpt>
      <trkpt lat="44.42204" lon="2.42689">
        <ele>453</ele>
        <time>2018-04-29T15:18:08Z</time>
      </trkpt>
      <trkpt lat="44.42115" lon="2.4272">
        <ele>441</ele>
        <time>2018-04-29T15:19:08Z</time>
      </trkpt>
      <trkpt lat="44.42082" lon="2.42615">
        <ele>416</ele>
        <time>2018-04-29T15:20:08Z</time>
      </trkpt>
      <trkpt lat="44.42181" lon="2.42455">
        <ele>402</ele>
        <time>2018-04-29T15:21:08Z</time>
      </trkpt>
      <trkpt lat="44.4221" lon="2.42401">
        <ele>399</ele>
        <time>2018-04-29T15:22:08Z</time>
      </trkpt>
      <trkpt lat="44.42175" lon="2.42345">
        <ele>389</ele>
        <time>2018-04-29T15:23:08Z</time>
      </trkpt>
      <trkpt lat="44.42187" lon="2.42246">
        <ele>382</ele>
        <time>2018-04-29T15:24:08Z</time>
      </trkpt>
      <trkpt lat="44.42226" lon="2.41952">
        <ele>364</ele>
        <time>2018-04-29T15:25:08Z</time>
      </trkpt>
      <trkpt lat="44.42256" lon="2.41864">
        <ele>363</ele>
        <time>2018-04-29T15:26:08Z</time>
      </trkpt>
      <trkpt lat="44.42348" lon="2.41746">
        <ele>355</ele>
        <time>2018-04-29T15:27:08Z</time>
      </trkpt>
      <trkpt lat="44.42223" lon="2.41639">
        <ele>353</ele>
        <time>2018-04-29T15:28:08Z</time>
      </trkpt>
      <trkpt lat="44.42031" lon="2.41538">
        <ele>344</ele>
        <time>2018-04-29T15:29:08Z</time>
      </trkpt>
      <trkpt lat="44.41924" lon="2.41422">
        <ele>352</ele>
        <time>2018-04-29T15:30:08Z</time>
      </trkpt>
      <trkpt lat="44.42037" lon="2.41264">
        <ele>350</ele>
        <time>2018-04-29T15:31:08Z</time>
      </trkpt>
      <trkpt lat="44.42187" lon="2.41167">
        <ele>342</ele>
        <time>2018-04-29T15:32:08Z</time>
      </trkpt>
      <trkpt lat="44.42258" lon="2.41146">
        <ele>342</ele>
        <time>2018-04-29T15:33:08Z</time>
      </trkpt>
      <trkpt lat="44.42351" lon="2.41169">
        <ele>340</ele>
        <time>2018-04-29T15:34:08Z</time>
      </trkpt>
      <trkpt lat="44.42465" lon="2.41163">
        <ele>337</ele>
        <time>2018-04-29T15:35:08Z</time>
      </trkpt>
      <trkpt lat="44.42586" lon="2.4109">
        <ele>339</ele>
        <time>2018-04-29T15:36:08Z</time>
      </trkpt>
      <trkpt lat="44.42672" lon="2.41169">
        <ele>339</ele>
        <time>2018-04-29T15:37:08Z</time>
      </trkpt>
      <trkpt lat="44.42716" lon="2.41081">
        <ele>342</ele>
        <time>2018-04-29T15:38:08Z</time>
      </trkpt>
      <trkpt lat="44.42937" lon="2.4118">
        <ele>332</ele>
        <time>2018-04-29T15:39:08Z</time>
      </trkpt>
    </trkseg>
  </trk>
</gpx>